Terminal Aerodrome Forecast
Issued by NWS Mt. Holly, NJ

Home | Current Version | Previous Version | Text Only | Print | Product List | Glossary On
Versions: 1 2 3 4 5 6 7 8 9 10 11 12 13 14 15 16 17
000
FTUS41 KPHI 241700
TAFILG
TAF
KILG 241728Z 2418/2518 31016G26KT P6SM SKC
     FM250000 34010KT P6SM SKC
     FM250600 VRB05KT P6SM SCT250
     FM251500 16008KT P6SM BKN200=

USA.gov is the U.S. government's official web portal to all federal, state and local government web resources and services.